Tisul, Russia
Current Conditions -  °F | °C
As of 8:00 PM on Sunday 21 Dec 2014 (Local Time) from UNEE Reporting Station
Clear Clear  
Wind Chill:   Ceiling: Unl
Heat Index: 16°   Visibility: 6mi
Dew Point: 14°   Wind: 4mph
Humidity: 93%   Direction: 150°SSE
Pressure: 30.18"   Gusts: NA
Location:  55.76°N, 88.31°E
Report Text: UNEE 211300Z 15002MPS CAVOK M09/M10 Q1022 NOSIG RMK QFE74423821045
Loading
Personal Weather Stations






























Interactive Weather Map New forecast layout! Learn more

10-Day Weather Forecast

Advertisements
Track Severe Weather on mobile